• Join FlightAware (Why Join?)
  • Login
  • US Flag 
06:40PM EDT


 

Airport Tracker/Info


-or-


 

Live Flight TrackerFlight Track Log ✈ N402VN ✈ 07-May-2013 ✈ KFLL - KMYR

Flight Track Log - Related Links

Times and Time Zones

All times are in EDT time to prevent confusion due to time zone crossing. See the N402VN flight status page for this flight to view local times or setup timezone preferences in your user account.

Time Position Orientation Groundspeed Altitude Reporting Facility
EDT Latitude Longitude Course Direction KTS MPH feet Rate Location/Type
08:12AM 26.0783 -80.1692 290° West 133 153 600  Level Miami Center
08:13AM 26.0861 -80.1925 290° West 119 137 1,200 840 Climbing Miami Center
08:14AM 26.1000 -80.2231 297° West 117 135 2,000 240 Climbing Miami Center
08:16AM 26.1745 -80.1764 29° Northeast  Level FlightAware Approximate
08:23AM 26.4737 -80.1195 10° North  Level FlightAware Approximate
08:24AM 26.5166 -80.1115 10° North  Level FlightAware Approximate
08:25AM 26.5594 -80.1035 10° North  Level FlightAware Approximate
08:26AM 26.6022 -80.0954 10° North  Level FlightAware Approximate
08:27AM 26.6451 -80.0874 10° North  Level FlightAware Approximate
08:28AM 26.6872 -80.0906 343° North  Level FlightAware Approximate
08:29AM 26.7287 -80.1052 343° North  Level FlightAware Approximate
08:30AM 26.7701 -80.1198 343° North  Level FlightAware Approximate
08:31AM 26.8116 -80.1344 343° North  Level FlightAware Approximate
08:32AM 26.8530 -80.1490 343° North  Level FlightAware Approximate
08:33AM 26.8944 -80.1637 343° North  Level FlightAware Approximate
08:33AM 26.9014 -80.2528 338° Northwest 151 174 7,100  Level Miami Center
08:34AM 26.9359 -80.1783 342° North  Level FlightAware Approximate
08:34AM 26.9369 -80.2517 North 151 174 7,000  Level Miami Center
08:35AM 26.9765 -80.1954 338° Northwest  Level FlightAware Approximate
08:35AM 26.9767 -80.2528 359° North 175 201 7,000  Level Miami Center
08:36AM 27.0168 -80.2137 338° Northwest  Level FlightAware Approximate
08:36AM 27.0247 -80.2542 359° North 170 196 7,100  Level Miami Center
08:37AM 27.0571 -80.2320 338° Northwest  Level FlightAware Approximate
08:37AM 27.0664 -80.2553 359° North 157 181 7,000  Level Miami Center
08:38AM 27.0974 -80.2503 338° Northwest  Level FlightAware Approximate
08:38AM 27.1103 -80.2542 North 157 181 7,000  Level Miami Center
08:39AM 27.1431 -80.2739 332° Northwest 146 168 7,000  Level Miami Center
08:40AM 27.1867 -80.2914 340° North 146 168 7,000  Level Miami Center
08:41AM 27.2239 -80.3067 340° North 146 168 7,000  Level Miami Center
08:42AM 27.2631 -80.3219 341° North 146 168 7,000  Level Miami Center
08:43AM 27.2983 -80.3369 339° North 146 168 7,000  Level Miami Center
08:44AM 27.3397 -80.3544 339° North 146 168 7,000  Level Miami Center
08:45AM 27.3831 -80.3722 340° North 146 168 7,000  Level Miami Center
08:46AM 27.4222 -80.3897 338° Northwest 146 168 7,000  Level Miami Center
08:47AM 27.4594 -80.4050 340° North 146 168 7,000  Level Miami Center
08:48AM 27.4947 -80.4178 342° North 146 168 7,000  Level Miami Center
08:49AM 27.5361 -80.4356 339° North 146 168 7,000  Level Miami Center
08:50AM 27.5753 -80.4483 344° North 146 168 7,000  Level Miami Center
08:51AM 27.6125 -80.4658 337° Northwest 146 168 7,000  Level Miami Center
08:52AM 27.6475 -80.4789 342° North 146 168 7,000  Level Miami Center
08:53AM 27.6847 -80.4939 340° North 146 168 7,000  Level Miami Center
08:54AM 27.7283 -80.5072 345° North 146 168 7,000  Level Miami Center
08:55AM 27.7678 -80.5156 349° North 146 168 7,000  Level Miami Center
08:56AM 27.8069 -80.5308 341° North 146 168 7,000  Level Miami Center
08:58AM 27.8833 -80.5500 347° North 151 174 7,000  Level Orlando TRACON
08:59AM 27.9167 -80.5667 336° Northwest 137 158 7,000  Level Orlando TRACON
09:00AM 27.9500 -80.5833 336° Northwest 138 159 7,000  Level Orlando TRACON
09:01AM 27.9833 -80.5833 360° North 138 159 7,100  Climbing Orlando TRACON
09:02AM 28.0167 -80.6000 336° Northwest 140 161 7,000 -60 Descending Orlando TRACON
09:03AM 28.0667 -80.6167 344° North 142 163 7,000  Level Orlando TRACON
09:04AM 28.1000 -80.6333 336° Northwest 141 162 7,000  Level Orlando TRACON
09:05AM 28.1500 -80.6333 360° North 141 162 7,000  Level Orlando TRACON
09:06AM 28.1833 -80.6500 336° Northwest 140 161 7,000  Level Orlando TRACON
09:07AM 28.2167 -80.6667 336° Northwest 138 159 7,000  Level Orlando TRACON
09:08AM 28.2500 -80.6833 336° Northwest 137 158 7,000  Level Orlando TRACON
09:09AM 28.2833 -80.7000 336° Northwest 135 155 7,000  Level Orlando TRACON
09:10AM 28.3167 -80.7167 336° Northwest 137 158 7,000  Level Orlando TRACON
09:11AM 28.3500 -80.7333 336° Northwest 136 157 7,000  Level Orlando TRACON
09:12AM 28.3833 -80.7500 336° Northwest 136 157 7,000  Level Orlando TRACON
09:13AM 28.4333 -80.7667 344° North 138 159 7,000  Level Orlando TRACON
09:14AM 28.4667 -80.7833 336° Northwest 137 158 7,000  Level Orlando TRACON
09:15AM 28.5000 -80.7833 360° North 135 155 7,000  Level Orlando TRACON
09:16AM 28.5333 -80.8000 336° Northwest 134 154 7,000  Level Orlando TRACON
09:17AM 28.5667 -80.8167 336° Northwest 133 153 7,000  Level Orlando TRACON
09:18AM 28.6000 -80.8333 336° Northwest 136 157 7,000  Level Orlando TRACON
09:19AM 28.6333 -80.8500 336° Northwest 134 154 7,000  Level Orlando TRACON
09:20AM 28.6833 -80.8667 344° North 134 154 7,000  Level Orlando TRACON
09:21AM 28.7167 -80.8833 336° Northwest 133 153 7,000  Level Orlando TRACON
09:22AM 28.7647 -80.9008 342° North 135 155 7,000  Level Jacksonville Center
09:23AM 28.7919 -80.9144 336° Northwest 136 157 7,000  Level Jacksonville Center
09:24AM 28.8383 -80.9300 344° North 136 157 7,000  Level Jacksonville Center
09:25AM 28.8717 -80.9414 343° North 136 157 7,000  Level Jacksonville Center
09:26AM 28.9011 -80.9550 338° Northwest 136 157 7,000  Level Jacksonville Center
09:27AM 28.9411 -80.9731 338° Northwest 135 155 7,000  Level Jacksonville Center
09:28AM 28.9747 -80.9867 340° North 134 154 7,000  Level Jacksonville Center
09:29AM 29.0103 -80.9978 345° North 134 154 7,000  Level Jacksonville Center
09:30AM 29.0522 -81.0114 344° North 137 158 7,000  Level Jacksonville Center
09:31AM 29.0900 -81.0153 355° North 136 157 7,000  Level Jacksonville Center
09:32AM 29.1297 -81.0194 355° North 137 158 7,000  Level Jacksonville Center
09:33AM 29.1653 -81.0236 354° North 138 159 7,000  Level Jacksonville Center
09:34AM 29.2028 -81.0300 352° North 138 159 7,000  Level Jacksonville Center
09:35AM 29.2447 -81.0339 355° North 138 159 7,000  Level Jacksonville Center
09:36AM 29.2739 -81.0381 353° North 138 159 7,000  Level Jacksonville Center
09:37AM 29.3117 -81.0422 355° North 136 157 7,000  Level Jacksonville Center
09:39AM 29.3575 -81.0508 351° North 140 161 7,000  Level Jacksonville Center
09:39AM 29.3911 -81.0525 358° North 140 161 7,000  Level Jacksonville Center
09:40AM 29.4286 -81.0567 354° North 141 162 7,000  Level Jacksonville Center
09:41AM 29.4747 -81.0631 353° North 141 162 7,000  Level Jacksonville Center
09:42AM 29.5144 -81.0669 355° North 141 162 7,000  Level Jacksonville Center
09:43AM 29.5500 -81.0711 354° North 141 162 7,000  Level Jacksonville Center
09:44AM 29.5875 -81.0775 352° North 144 166 7,000  Level Jacksonville Center
09:45AM 29.6275 -81.0839 352° North 144 166 7,000  Level Jacksonville Center
09:46AM 29.6461 -81.0836 North 144 166 7,000  Level Jacksonville Center
09:47AM 29.6817 -81.0878 354° North 142 163 7,000  Level Jacksonville Center
09:48AM 29.7214 -81.0917 355° North 145 167 7,000  Level Jacksonville Center
09:49AM 29.7633 -81.0981 352° North 141 162 7,100  Climbing Jacksonville Center
09:50AM 29.8072 -81.1022 355° North 143 165 7,100  Level Jacksonville Center
09:51AM 29.8447 -81.1086 352° North 140 161 7,100  Level Jacksonville Center
09:52AM 29.8825 -81.1128 355° North 139 160 7,100  Level Jacksonville Center
09:53AM 29.9222 -81.1167 355° North 136 157 7,100  Level Jacksonville Center
09:54AM 29.9619 -81.1183 358° North 143 165 7,100  Level Jacksonville Center
09:55AM 30.0036 -81.1178 North 142 163 7,100  Level Jacksonville Center
09:56AM 30.0453 -81.1194 358° North 140 161 7,100  Level Jacksonville Center
09:57AM 30.0831 -81.1186 North 138 159 7,100  Level Jacksonville Center
09:58AM 30.1269 -81.1228 355° North 142 163 7,100  Level Jacksonville Center
09:59AM 30.1625 -81.1244 358° North 141 162 7,100  Level Jacksonville Center
10:00AM 30.2144 -81.1233 North 146 168 7,100  Level Jacksonville Center
10:01AM 30.2481 -81.1253 357° North 144 166 7,100  Level Jacksonville Center
10:02AM 30.2897 -81.1244 North 147 169 7,100  Level Jacksonville Center
10:03AM 30.3317 -81.1261 358° North 143 165 7,100  Level Jacksonville Center
10:04AM 30.3692 -81.1278 358° North 144 166 7,100  Level Jacksonville Center
10:05AM 30.4006 -81.1272 North 143 165 7,100  Level Jacksonville Center
10:06AM 30.4422 -81.1314 355° North 143 165 7,100  Level Jacksonville Center
10:07AM 30.4819 -81.1306 North 148 170 7,100  Level Jacksonville Center
10:07AM 30.4944 -81.1278 11° North 144 166 7,100  Level Jacksonville Center
10:08AM 30.5194 -81.1322 351° North 149 171 7,100  Level Jacksonville Center
10:09AM 30.5614 -81.1339 358° North 149 171 7,100  Level Jacksonville Center
10:10AM 30.6008 -81.1331 North 149 171 7,100  Level Jacksonville Center
10:11AM 30.6406 -81.1347 358° North 139 160 7,100  Level Jacksonville Center
10:12AM 30.6783 -81.1367 357° North 139 160 7,100  Level Jacksonville Center
10:13AM 30.7200 -81.1383 358° North 139 160 7,100  Level Jacksonville Center
10:14AM 30.7597 -81.1375 North 139 160 7,100  Level Jacksonville Center
10:15AM 30.7972 -81.1367 North 139 160 7,100  Level Jacksonville Center
10:16AM 30.8411 -81.1408 355° North 144 166 7,100  Level Jacksonville Center
10:17AM 30.8786 -81.1400 North 144 166 7,100  Level Jacksonville Center
10:18AM 30.9206 -81.1417 358° North 138 159 7,100  Level Jacksonville Center
10:19AM 30.9603 -81.1433 358° North 138 159 7,100  Level Jacksonville Center
10:20AM 31.0019 -81.1428 North 143 165 7,100  Level Jacksonville Center
10:21AM 31.0439 -81.1467 355° North 143 165 7,100  Level Jacksonville Center
10:22AM 31.0875 -81.1458 North 143 165 7,100  Level Jacksonville Center
10:23AM 31.1253 -81.1428 North 143 165 7,100  Level Jacksonville Center
10:24AM 31.1689 -81.1444 358° North 148 170 7,100  Level Jacksonville Center
10:25AM 31.2128 -81.1436 North 148 170 7,100  Level Jacksonville Center
10:26AM 31.2544 -81.1258 20° North 148 170 7,100  Level Jacksonville Center
10:27AM 31.2981 -81.1081 19° North 148 170 7,100  Level Jacksonville Center
10:28AM 31.3353 -81.0903 22° Northeast 153 176 7,100  Level Jacksonville Center
10:29AM 31.3747 -81.0750 18° North 153 176 7,100  Level Jacksonville Center
10:30AM 31.4225 -81.0519 22° Northeast 148 170 7,100  Level Jacksonville Center
10:31AM 31.4639 -81.0342 20° North 148 170 7,100  Level Jacksonville Center
10:32AM 31.5056 -81.0164 20° North 148 170 7,100  Level Jacksonville Center
10:33AM 31.5450 -81.0033 16° North 148 170 7,100  Level Jacksonville Center
10:34AM 31.5925 -80.9803 22° Northeast 148 170 7,100  Level Jacksonville Center
10:35AM 31.6342 -80.9625 20° North 148 170 7,100  Level Jacksonville Center
10:36AM 31.6756 -80.9419 23° Northeast 155 178 7,100  Level Jacksonville Center
10:37AM 31.7150 -80.9267 18° North 155 178 7,100  Level Jacksonville Center
10:38AM 31.7586 -80.9086 19° North 155 178 7,100  Level Jacksonville Center
10:40AM 31.8162 -80.8763 25° Northeast  Level FlightAware Approximate
10:47AM 32.0508 -80.6856 35° Northeast  Level FlightAware Approximate
10:48AM 32.0841 -80.6579 35° Northeast  Level FlightAware Approximate
10:49AM 32.1173 -80.6301 35° Northeast  Level FlightAware Approximate
10:50AM 32.1536 -80.6138 33° Northeast  Level FlightAware Approximate
10:51AM 32.1876 -80.5874 33° Northeast  Level FlightAware Approximate
10:52AM 32.2216 -80.5609 33° Northeast  Level FlightAware Approximate
10:53AM 32.2556 -80.5344 33° Northeast  Level FlightAware Approximate
10:54AM 32.2896 -80.5078 33° Northeast  Level FlightAware Approximate
10:55AM 32.3235 -80.4813 33° Northeast  Level FlightAware Approximate
10:56AM 32.3575 -80.4547 33° Northeast  Level FlightAware Approximate
10:57AM 32.3914 -80.4281 33° Northeast  Level FlightAware Approximate
10:58AM 32.4254 -80.4015 33° Northeast  Level FlightAware Approximate
10:59AM 32.4593 -80.3749 34° Northeast  Level FlightAware Approximate
11:00AM 32.4932 -80.3482 34° Northeast  Level FlightAware Approximate
11:01AM 32.5271 -80.3215 34° Northeast  Level FlightAware Approximate
11:02AM 32.5498 -80.2882 31° Northeast  Level FlightAware Approximate
11:03AM 32.5847 -80.2633 31° Northeast  Level FlightAware Approximate
11:04AM 32.6196 -80.2384 31° Northeast  Level FlightAware Approximate
11:05AM 32.6545 -80.2137 29° Northeast  Level FlightAware Approximate
11:06AM 32.6900 -80.1900 29° Northeast  Level FlightAware Approximate
11:07AM 32.7224 -80.1609 40° Northeast  Level FlightAware Approximate
11:08AM 32.7539 -80.1304 32° Northeast  Level FlightAware Approximate
11:09AM 32.7883 -80.1046 32° Northeast  Level FlightAware Approximate
11:10AM 32.8228 -80.0788 32° Northeast  Level FlightAware Approximate
11:11AM 32.8572 -80.0529 32° Northeast  Level FlightAware Approximate
11:12AM 32.8900 -80.0247 47° Northeast  Level FlightAware Approximate
11:13AM 32.9177 -79.9892 47° Northeast  Level FlightAware Approximate
11:14AM 32.9454 -79.9536 47° Northeast  Level FlightAware Approximate
11:15AM 32.9730 -79.9180 47° Northeast  Level FlightAware Approximate
11:16AM 33.0006 -79.8824 51° Northeast  Level FlightAware Approximate
11:17AM 33.0260 -79.8444 51° Northeast  Level FlightAware Approximate
11:18AM 33.0519 -79.8069 50° Northeast  Level FlightAware Approximate
11:19AM 33.0780 -79.7697 50° Northeast  Level FlightAware Approximate
11:20AM 33.1041 -79.7324 50° Northeast  Level FlightAware Approximate
11:21AM 33.1302 -79.6951 50° Northeast  Level FlightAware Approximate
11:22AM 33.1563 -79.6578 50° Northeast  Level FlightAware Approximate
11:23AM 33.1824 -79.6205 50° Northeast  Level FlightAware Approximate
11:24AM 33.2085 -79.5832 50° Northeast  Level FlightAware Approximate
11:25AM 33.2346 -79.5458 50° Northeast  Level FlightAware Approximate
11:26AM 33.2607 -79.5085 50° Northeast  Level FlightAware Approximate
11:27AM 33.2863 -79.4706 51° Northeast  Level FlightAware Approximate
11:28AM 33.3117 -79.4325 51° Northeast  Level FlightAware Approximate
11:29AM 33.3371 -79.3944 51° Northeast  Level FlightAware Approximate
11:30AM 33.3624 -79.3563 51° Northeast  Level FlightAware Approximate
11:31AM 33.3845 -79.3155 40° Northeast  Level FlightAware Approximate
11:32AM 33.4128 -79.2808 51° Northeast  Level FlightAware Approximate
11:33AM 33.4383 -79.2429 50° Northeast  Level FlightAware Approximate
11:34AM 33.4645 -79.2055 50° Northeast  Level FlightAware Approximate
11:35AM 33.4907 -79.1682 50° Northeast  Level FlightAware Approximate
11:36AM 33.5169 -79.1308 50° Northeast  Level FlightAware Approximate
11:37AM 33.5430 -79.0933 50° Northeast  Level FlightAware Approximate
11:38AM 33.5707 -79.0575 46° Northeast  Level FlightAware Approximate
11:39AM 33.5989 -79.0223 46° Northeast  Level FlightAware Approximate